sensor_id;sensor_type;location;lat;lon;timestamp;temperature;humidity
9790;DHT22;4934;50.852;8.098;2023-11-21T00:02:13;6.60;99.90
9790;DHT22;4934;50.852;8.098;2023-11-21T00:04:39;6.60;99.90
9790;DHT22;4934;50.852;8.098;2023-11-21T00:07:04;6.60;99.90
9790;DHT22;4934;50.852;8.098;2023-11-21T00:09:31;6.60;99.90
9790;DHT22;4934;50.852;8.098;2023-11-21T00:11:57;6.50;99.90
9790;DHT22;4934;50.852;8.098;2023-11-21T00:14:24;6.50;99.90
9790;DHT22;4934;50.852;8.098;2023-11-21T00:16:50;6.50;99.90
9790;DHT22;4934;50.852;8.098;2023-11-21T00:19:16;6.40;99.90
9790;DHT22;4934;50.852;8.098;2023-11-21T00:21:42;6.30;99.90
9790;DHT22;4934;50.852;8.098;2023-11-21T00:24:10;6.30;99.90
9790;DHT22;4934;50.852;8.098;2023-11-21T00:26:35;6.20;99.90
9790;DHT22;4934;50.852;8.098;2023-11-21T00:29:03;6.20;99.90
9790;DHT22;4934;50.852;8.098;2023-11-21T00:31:29;6.20;99.90
9790;DHT22;4934;50.852;8.098;2023-11-21T00:33:56;6.10;99.90
9790;DHT22;4934;50.852;8.098;2023-11-21T00:36:22;6.10;99.90
9790;DHT22;4934;50.852;8.098;2023-11-21T00:38:47;6.10;99.90
9790;DHT22;4934;50.852;8.098;2023-11-21T00:41:14;6.10;99.90
9790;DHT22;4934;50.852;8.098;2023-11-21T00:43:39;6.10;99.90
9790;DHT22;4934;50.852;8.098;2023-11-21T00:46:08;6.10;99.90
9790;DHT22;4934;50.852;8.098;2023-11-21T00:48:33;6.10;99.90
9790;DHT22;4934;50.852;8.098;2023-11-21T00:50:59;6.10;99.90
9790;DHT22;4934;50.852;8.098;2023-11-21T00:53:25;6.10;99.90
9790;DHT22;4934;50.852;8.098;2023-11-21T00:55:51;6.10;99.90
9790;DHT22;4934;50.852;8.098;2023-11-21T00:58:23;6.10;99.90
9790;DHT22;4934;50.852;8.098;2023-11-21T01:00:48;6.10;99.90
9790;DHT22;4934;50.852;8.098;2023-11-21T01:03:14;6.10;99.90
9790;DHT22;4934;50.852;8.098;2023-11-21T01:05:39;6.10;99.90
9790;DHT22;4934;50.852;8.098;2023-11-21T01:08:05;6.10;99.90
9790;DHT22;4934;50.852;8.098;2023-11-21T01:10:31;6.10;99.90
9790;DHT22;4934;50.852;8.098;2023-11-21T01:12:56;6.10;99.90
9790;DHT22;4934;50.852;8.098;2023-11-21T01:15:23;6.00;99.90
9790;DHT22;4934;50.852;8.098;2023-11-21T01:17:51;6.00;99.90
9790;DHT22;4934;50.852;8.098;2023-11-21T01:20:17;6.10;99.90
9790;DHT22;4934;50.852;8.098;2023-11-21T01:22:43;6.10;99.90
9790;DHT22;4934;50.852;8.098;2023-11-21T01:25:09;6.20;99.90
9790;DHT22;4934;50.852;8.098;2023-11-21T01:27:34;6.20;99.90
9790;DHT22;4934;50.852;8.098;2023-11-21T01:30:01;6.20;99.90
9790;DHT22;4934;50.852;8.098;2023-11-21T01:32:27;6.20;99.90
9790;DHT22;4934;50.852;8.098;2023-11-21T01:34:54;6.20;99.90
9790;DHT22;4934;50.852;8.098;2023-11-21T01:37:21;6.20;99.90
9790;DHT22;4934;50.852;8.098;2023-11-21T01:39:47;6.20;99.90
9790;DHT22;4934;50.852;8.098;2023-11-21T01:42:13;6.20;99.90
9790;DHT22;4934;50.852;8.098;2023-11-21T01:44:39;6.20;99.90
9790;DHT22;4934;50.852;8.098;2023-11-21T01:47:08;6.20;99.90
9790;DHT22;4934;50.852;8.098;2023-11-21T01:49:35;6.20;99.90
9790;DHT22;4934;50.852;8.098;2023-11-21T01:52:01;6.10;99.90
9790;DHT22;4934;50.852;8.098;2023-11-21T01:54:28;6.10;99.90
9790;DHT22;4934;50.852;8.098;2023-11-21T01:56:58;6.10;99.90
9790;DHT22;4934;50.852;8.098;2023-11-21T01:59:34;6.10;99.90
9790;DHT22;4934;50.852;8.098;2023-11-21T02:02:00;6.10;99.90
9790;DHT22;4934;50.852;8.098;2023-11-21T02:04:25;6.10;99.90
9790;DHT22;4934;50.852;8.098;2023-11-21T02:06:51;6.10;99.90
9790;DHT22;4934;50.852;8.098;2023-11-21T02:09:17;6.10;99.90
9790;DHT22;4934;50.852;8.098;2023-11-21T02:11:43;6.00;99.90
9790;DHT22;4934;50.852;8.098;2023-11-21T02:14:09;6.00;99.90
9790;DHT22;4934;50.852;8.098;2023-11-21T02:16:35;6.00;99.90
9790;DHT22;4934;50.852;8.098;2023-11-21T02:19:02;6.00;99.90
9790;DHT22;4934;50.852;8.098;2023-11-21T02:21:32;6.00;99.90
9790;DHT22;4934;50.852;8.098;2023-11-21T02:23:58;6.00;99.90
9790;DHT22;4934;50.852;8.098;2023-11-21T02:26:24;6.00;99.90
9790;DHT22;4934;50.852;8.098;2023-11-21T02:28:51;6.00;99.90
9790;DHT22;4934;50.852;8.098;2023-11-21T02:31:18;6.00;99.90
9790;DHT22;4934;50.852;8.098;2023-11-21T02:33:44;6.00;99.90
9790;DHT22;4934;50.852;8.098;2023-11-21T02:36:10;6.10;99.90
9790;DHT22;4934;50.852;8.098;2023-11-21T02:38:35;6.00;99.90
9790;DHT22;4934;50.852;8.098;2023-11-21T02:41:01;6.00;99.90
9790;DHT22;4934;50.852;8.098;2023-11-21T02:43:26;6.00;99.90
9790;DHT22;4934;50.852;8.098;2023-11-21T02:45:52;5.90;99.90
9790;DHT22;4934;50.852;8.098;2023-11-21T02:48:17;6.00;99.90
9790;DHT22;4934;50.852;8.098;2023-11-21T02:50:43;5.90;99.90
9790;DHT22;4934;50.852;8.098;2023-11-21T02:53:09;6.00;99.90
9790;DHT22;4934;50.852;8.098;2023-11-21T02:55:36;6.00;99.90
9790;DHT22;4934;50.852;8.098;2023-11-21T02:58:02;6.00;99.90
9790;DHT22;4934;50.852;8.098;2023-11-21T03:00:29;6.00;99.90
9790;DHT22;4934;50.852;8.098;2023-11-21T03:02:55;6.00;99.90
9790;DHT22;4934;50.852;8.098;2023-11-21T03:05:21;6.00;99.90
9790;DHT22;4934;50.852;8.098;2023-11-21T03:07:47;6.00;99.90
9790;DHT22;4934;50.852;8.098;2023-11-21T03:10:12;6.00;99.90
9790;DHT22;4934;50.852;8.098;2023-11-21T03:12:39;6.00;99.90
9790;DHT22;4934;50.852;8.098;2023-11-21T03:15:05;6.00;99.90
9790;DHT22;4934;50.852;8.098;2023-11-21T03:17:31;6.00;99.90
9790;DHT22;4934;50.852;8.098;2023-11-21T03:19:59;6.00;99.90
9790;DHT22;4934;50.852;8.098;2023-11-21T03:22:25;6.00;99.90
9790;DHT22;4934;50.852;8.098;2023-11-21T03:24:50;6.00;99.90
9790;DHT22;4934;50.852;8.098;2023-11-21T03:27:16;6.00;99.90
9790;DHT22;4934;50.852;8.098;2023-11-21T03:29:42;5.90;99.90
9790;DHT22;4934;50.852;8.098;2023-11-21T03:32:07;5.90;99.90
9790;DHT22;4934;50.852;8.098;2023-11-21T03:34:33;5.90;99.90
9790;DHT22;4934;50.852;8.098;2023-11-21T03:36:58;6.00;99.90
9790;DHT22;4934;50.852;8.098;2023-11-21T03:39:24;6.00;99.90
9790;DHT22;4934;50.852;8.098;2023-11-21T03:41:51;6.00;99.90
9790;DHT22;4934;50.852;8.098;2023-11-21T03:44:17;6.00;99.90
9790;DHT22;4934;50.852;8.098;2023-11-21T03:46:43;6.10;99.90
9790;DHT22;4934;50.852;8.098;2023-11-21T03:49:09;6.10;99.90
9790;DHT22;4934;50.852;8.098;2023-11-21T03:51:36;6.10;99.90
9790;DHT22;4934;50.852;8.098;2023-11-21T03:54:02;6.10;99.90
9790;DHT22;4934;50.852;8.098;2023-11-21T03:56:28;6.00;99.90
9790;DHT22;4934;50.852;8.098;2023-11-21T03:58:54;6.10;99.90
9790;DHT22;4934;50.852;8.098;2023-11-21T04:01:21;6.10;99.90
9790;DHT22;4934;50.852;8.098;2023-11-21T04:03:47;6.10;99.90
9790;DHT22;4934;50.852;8.098;2023-11-21T04:06:13;6.10;99.90
9790;DHT22;4934;50.852;8.098;2023-11-21T04:08:38;6.10;99.90
9790;DHT22;4934;50.852;8.098;2023-11-21T04:11:04;6.10;99.90
9790;DHT22;4934;50.852;8.098;2023-11-21T04:13:29;6.10;99.90
9790;DHT22;4934;50.852;8.098;2023-11-21T04:15:56;6.00;99.90
9790;DHT22;4934;50.852;8.098;2023-11-21T04:18:21;6.00;99.90
9790;DHT22;4934;50.852;8.098;2023-11-21T04:20:48;6.10;99.90
9790;DHT22;4934;50.852;8.098;2023-11-21T04:23:14;6.10;99.90
9790;DHT22;4934;50.852;8.098;2023-11-21T04:25:40;6.10;99.90
9790;DHT22;4934;50.852;8.098;2023-11-21T04:28:06;6.10;99.90
9790;DHT22;4934;50.852;8.098;2023-11-21T04:30:31;6.10;99.90
9790;DHT22;4934;50.852;8.098;2023-11-21T04:32:58;6.20;99.90
9790;DHT22;4934;50.852;8.098;2023-11-21T04:35:23;6.10;99.90
9790;DHT22;4934;50.852;8.098;2023-11-21T04:37:49;6.20;99.90
9790;DHT22;4934;50.852;8.098;2023-11-21T04:40:16;6.20;99.90
9790;DHT22;4934;50.852;8.098;2023-11-21T04:42:42;6.20;99.90
9790;DHT22;4934;50.852;8.098;2023-11-21T04:45:08;6.20;99.90
9790;DHT22;4934;50.852;8.098;2023-11-21T04:47:37;6.20;99.90
9790;DHT22;4934;50.852;8.098;2023-11-21T04:50:04;6.20;99.90
9790;DHT22;4934;50.852;8.098;2023-11-21T04:52:31;6.20;99.90
9790;DHT22;4934;50.852;8.098;2023-11-21T04:54:58;6.20;99.90
9790;DHT22;4934;50.852;8.098;2023-11-21T04:57:26;6.20;99.90
9790;DHT22;4934;50.852;8.098;2023-11-21T04:59:54;6.20;99.90
9790;DHT22;4934;50.852;8.098;2023-11-21T05:02:19;6.20;99.90
9790;DHT22;4934;50.852;8.098;2023-11-21T05:04:47;6.10;99.90
9790;DHT22;4934;50.852;8.098;2023-11-21T05:07:12;6.10;99.90
9790;DHT22;4934;50.852;8.098;2023-11-21T05:09:42;6.10;99.90
9790;DHT22;4934;50.852;8.098;2023-11-21T05:12:12;6.10;99.90
9790;DHT22;4934;50.852;8.098;2023-11-21T05:14:37;6.10;99.90
9790;DHT22;4934;50.852;8.098;2023-11-21T05:17:03;6.20;99.90
9790;DHT22;4934;50.852;8.098;2023-11-21T05:19:29;6.20;99.90
9790;DHT22;4934;50.852;8.098;2023-11-21T05:21:55;6.20;99.90
9790;DHT22;4934;50.852;8.098;2023-11-21T05:24:20;6.20;99.90
9790;DHT22;4934;50.852;8.098;2023-11-21T05:26:46;6.20;99.90
9790;DHT22;4934;50.852;8.098;2023-11-21T05:29:11;6.20;99.90
9790;DHT22;4934;50.852;8.098;2023-11-21T05:31:37;6.20;99.90
9790;DHT22;4934;50.852;8.098;2023-11-21T05:34:03;6.20;99.90
9790;DHT22;4934;50.852;8.098;2023-11-21T05:36:30;6.20;99.90
9790;DHT22;4934;50.852;8.098;2023-11-21T05:38:56;6.20;99.90
9790;DHT22;4934;50.852;8.098;2023-11-21T05:41:21;6.30;99.90
9790;DHT22;4934;50.852;8.098;2023-11-21T05:43:47;6.20;99.90
9790;DHT22;4934;50.852;8.098;2023-11-21T05:46:13;6.30;99.90
9790;DHT22;4934;50.852;8.098;2023-11-21T05:48:39;6.30;99.90
9790;DHT22;4934;50.852;8.098;2023-11-21T05:51:05;6.30;99.90
9790;DHT22;4934;50.852;8.098;2023-11-21T05:53:31;6.30;99.90
9790;DHT22;4934;50.852;8.098;2023-11-21T05:55:57;6.20;99.90
9790;DHT22;4934;50.852;8.098;2023-11-21T05:58:23;6.20;99.90
9790;DHT22;4934;50.852;8.098;2023-11-21T06:00:49;6.20;99.90
9790;DHT22;4934;50.852;8.098;2023-11-21T06:03:14;6.20;99.90
9790;DHT22;4934;50.852;8.098;2023-11-21T06:05:40;6.20;99.90
9790;DHT22;4934;50.852;8.098;2023-11-21T06:08:06;6.30;99.90
9790;DHT22;4934;50.852;8.098;2023-11-21T06:10:32;6.20;99.90
9790;DHT22;4934;50.852;8.098;2023-11-21T06:12:58;6.20;99.90
9790;DHT22;4934;50.852;8.098;2023-11-21T06:15:23;6.20;99.90
9790;DHT22;4934;50.852;8.098;2023-11-21T06:17:49;6.20;99.90
9790;DHT22;4934;50.852;8.098;2023-11-21T06:20:18;6.10;99.90
9790;DHT22;4934;50.852;8.098;2023-11-21T06:22:47;6.10;99.90
9790;DHT22;4934;50.852;8.098;2023-11-21T06:25:14;6.10;99.90
9790;DHT22;4934;50.852;8.098;2023-11-21T06:27:42;6.10;99.90
9790;DHT22;4934;50.852;8.098;2023-11-21T06:30:08;6.10;99.90
9790;DHT22;4934;50.852;8.098;2023-11-21T06:32:36;6.10;99.90
9790;DHT22;4934;50.852;8.098;2023-11-21T06:35:02;6.10;99.90
9790;DHT22;4934;50.852;8.098;2023-11-21T06:37:30;6.30;99.90
9790;DHT22;4934;50.852;8.098;2023-11-21T06:39:56;6.30;99.90
9790;DHT22;4934;50.852;8.098;2023-11-21T06:42:23;6.30;99.90
9790;DHT22;4934;50.852;8.098;2023-11-21T06:44:50;6.20;99.90
9790;DHT22;4934;50.852;8.098;2023-11-21T06:47:27;6.20;99.90
9790;DHT22;4934;50.852;8.098;2023-11-21T06:49:55;6.20;99.90
9790;DHT22;4934;50.852;8.098;2023-11-21T06:52:20;6.20;99.90
9790;DHT22;4934;50.852;8.098;2023-11-21T06:54:47;6.20;99.90
9790;DHT22;4934;50.852;8.098;2023-11-21T06:57:15;6.20;99.90
9790;DHT22;4934;50.852;8.098;2023-11-21T06:59:40;6.20;99.90
9790;DHT22;4934;50.852;8.098;2023-11-21T07:02:06;6.10;99.90
9790;DHT22;4934;50.852;8.098;2023-11-21T07:04:35;6.10;99.90
9790;DHT22;4934;50.852;8.098;2023-11-21T07:07:02;6.20;99.90
9790;DHT22;4934;50.852;8.098;2023-11-21T07:09:28;6.20;99.90
9790;DHT22;4934;50.852;8.098;2023-11-21T07:11:54;6.20;99.90
9790;DHT22;4934;50.852;8.098;2023-11-21T07:14:20;6.20;99.90
9790;DHT22;4934;50.852;8.098;2023-11-21T07:16:47;6.20;99.90
9790;DHT22;4934;50.852;8.098;2023-11-21T07:19:13;6.20;99.90
9790;DHT22;4934;50.852;8.098;2023-11-21T07:21:39;6.20;99.90
9790;DHT22;4934;50.852;8.098;2023-11-21T07:24:06;6.20;99.90
9790;DHT22;4934;50.852;8.098;2023-11-21T07:26:33;6.20;99.90
9790;DHT22;4934;50.852;8.098;2023-11-21T07:28:59;6.30;99.90
9790;DHT22;4934;50.852;8.098;2023-11-21T07:31:25;6.30;99.90
9790;DHT22;4934;50.852;8.098;2023-11-21T07:33:51;6.30;99.90
9790;DHT22;4934;50.852;8.098;2023-11-21T07:36:17;6.30;99.90
9790;DHT22;4934;50.852;8.098;2023-11-21T07:38:49;6.30;99.90
9790;DHT22;4934;50.852;8.098;2023-11-21T07:41:15;6.30;99.90
9790;DHT22;4934;50.852;8.098;2023-11-21T07:43:41;6.30;99.90
9790;DHT22;4934;50.852;8.098;2023-11-21T07:46:07;6.30;99.90
9790;DHT22;4934;50.852;8.098;2023-11-21T07:48:33;6.30;99.90
9790;DHT22;4934;50.852;8.098;2023-11-21T07:51:00;6.40;99.90
9790;DHT22;4934;50.852;8.098;2023-11-21T07:53:26;6.40;99.90
9790;DHT22;4934;50.852;8.098;2023-11-21T07:55:54;6.40;99.90
9790;DHT22;4934;50.852;8.098;2023-11-21T07:58:20;6.50;99.90
9790;DHT22;4934;50.852;8.098;2023-11-21T08:00:46;6.60;99.90
9790;DHT22;4934;50.852;8.098;2023-11-21T08:03:13;6.60;99.90
9790;DHT22;4934;50.852;8.098;2023-11-21T08:05:39;6.60;99.90
9790;DHT22;4934;50.852;8.098;2023-11-21T08:08:05;6.60;99.90
9790;DHT22;4934;50.852;8.098;2023-11-21T08:10:31;6.60;99.90
9790;DHT22;4934;50.852;8.098;2023-11-21T08:12:56;6.50;99.90
9790;DHT22;4934;50.852;8.098;2023-11-21T08:15:22;6.50;99.90
9790;DHT22;4934;50.852;8.098;2023-11-21T08:17:48;6.60;99.90
9790;DHT22;4934;50.852;8.098;2023-11-21T08:20:14;6.60;99.90
9790;DHT22;4934;50.852;8.098;2023-11-21T08:22:44;6.70;99.90
9790;DHT22;4934;50.852;8.098;2023-11-21T08:25:10;6.70;99.90
9790;DHT22;4934;50.852;8.098;2023-11-21T08:27:41;6.70;99.90
9790;DHT22;4934;50.852;8.098;2023-11-21T08:30:07;6.80;99.90
9790;DHT22;4934;50.852;8.098;2023-11-21T08:32:33;6.80;99.90
9790;DHT22;4934;50.852;8.098;2023-11-21T08:35:02;6.70;99.90
9790;DHT22;4934;50.852;8.098;2023-11-21T08:37:28;6.90;99.90
9790;DHT22;4934;50.852;8.098;2023-11-21T08:39:58;6.90;99.90
9790;DHT22;4934;50.852;8.098;2023-11-21T08:42:25;7.00;99.90
9790;DHT22;4934;50.852;8.098;2023-11-21T08:44:50;7.10;99.90
9790;DHT22;4934;50.852;8.098;2023-11-21T08:47:16;7.30;99.90
9790;DHT22;4934;50.852;8.098;2023-11-21T08:49:42;7.40;99.90
9790;DHT22;4934;50.852;8.098;2023-11-21T08:52:08;7.40;99.90
9790;DHT22;4934;50.852;8.098;2023-11-21T08:54:34;7.60;99.90
9790;DHT22;4934;50.852;8.098;2023-11-21T08:56:59;7.70;99.90
9790;DHT22;4934;50.852;8.098;2023-11-21T08:59:26;7.80;99.90
9790;DHT22;4934;50.852;8.098;2023-11-21T09:01:51;7.80;99.90
9790;DHT22;4934;50.852;8.098;2023-11-21T09:04:17;8.00;99.90
9790;DHT22;4934;50.852;8.098;2023-11-21T09:06:43;8.00;99.90
9790;DHT22;4934;50.852;8.098;2023-11-21T09:09:08;8.10;99.90
9790;DHT22;4934;50.852;8.098;2023-11-21T09:11:37;8.10;99.90
9790;DHT22;4934;50.852;8.098;2023-11-21T09:14:03;8.10;99.90
9790;DHT22;4934;50.852;8.098;2023-11-21T09:16:29;8.00;99.90
9790;DHT22;4934;50.852;8.098;2023-11-21T09:18:55;8.00;99.90
9790;DHT22;4934;50.852;8.098;2023-11-21T09:21:20;8.10;99.90
9790;DHT22;4934;50.852;8.098;2023-11-21T09:23:46;8.20;99.90
9790;DHT22;4934;50.852;8.098;2023-11-21T09:26:12;8.10;99.90
9790;DHT22;4934;50.852;8.098;2023-11-21T09:28:37;8.10;99.90
9790;DHT22;4934;50.852;8.098;2023-11-21T09:31:04;8.20;99.90
9790;DHT22;4934;50.852;8.098;2023-11-21T09:33:34;8.20;99.90
9790;DHT22;4934;50.852;8.098;2023-11-21T09:35:59;8.20;99.90
9790;DHT22;4934;50.852;8.098;2023-11-21T09:38:25;8.10;99.90
9790;DHT22;4934;50.852;8.098;2023-11-21T09:40:51;8.20;99.90
9790;DHT22;4934;50.852;8.098;2023-11-21T09:43:18;8.40;99.90
9790;DHT22;4934;50.852;8.098;2023-11-21T09:45:48;8.40;99.90
9790;DHT22;4934;50.852;8.098;2023-11-21T09:48:20;8.70;99.90
9790;DHT22;4934;50.852;8.098;2023-11-21T09:50:47;8.50;99.90
9790;DHT22;4934;50.852;8.098;2023-11-21T09:53:17;8.60;99.90
9790;DHT22;4934;50.852;8.098;2023-11-21T09:55:44;8.90;99.90
9790;DHT22;4934;50.852;8.098;2023-11-21T09:58:12;9.00;99.90
9790;DHT22;4934;50.852;8.098;2023-11-21T10:00:45;8.90;99.90
9790;DHT22;4934;50.852;8.098;2023-11-21T10:03:11;8.80;99.90
9790;DHT22;4934;50.852;8.098;2023-11-21T10:05:38;8.90;99.90
9790;DHT22;4934;50.852;8.098;2023-11-21T10:08:07;8.70;99.90
9790;DHT22;4934;50.852;8.098;2023-11-21T10:10:35;8.70;99.90
9790;DHT22;4934;50.852;8.098;2023-11-21T10:13:03;8.80;99.90
9790;DHT22;4934;50.852;8.098;2023-11-21T10:15:33;8.80;99.90
9790;DHT22;4934;50.852;8.098;2023-11-21T10:18:05;8.70;99.90
9790;DHT22;4934;50.852;8.098;2023-11-21T10:20:33;8.50;99.90
9790;DHT22;4934;50.852;8.098;2023-11-21T10:23:03;8.40;99.90
9790;DHT22;4934;50.852;8.098;2023-11-21T10:25:30;8.50;99.90
9790;DHT22;4934;50.852;8.098;2023-11-21T10:28:02;8.70;99.90
9790;DHT22;4934;50.852;8.098;2023-11-21T10:30:35;8.80;99.90
9790;DHT22;4934;50.852;8.098;2023-11-21T10:33:07;8.80;99.90
9790;DHT22;4934;50.852;8.098;2023-11-21T10:35:45;8.80;99.90
9790;DHT22;4934;50.852;8.098;2023-11-21T10:38:20;8.90;99.90
9790;DHT22;4934;50.852;8.098;2023-11-21T10:40:50;9.10;99.90
9790;DHT22;4934;50.852;8.098;2023-11-21T10:43:17;9.10;99.90
9790;DHT22;4934;50.852;8.098;2023-11-21T10:45:43;9.10;99.90
9790;DHT22;4934;50.852;8.098;2023-11-21T10:48:10;8.90;99.90
9790;DHT22;4934;50.852;8.098;2023-11-21T10:50:46;8.80;99.90
9790;DHT22;4934;50.852;8.098;2023-11-21T10:53:12;8.70;99.90
9790;DHT22;4934;50.852;8.098;2023-11-21T10:55:38;8.80;99.90
9790;DHT22;4934;50.852;8.098;2023-11-21T10:58:05;8.90;99.90
9790;DHT22;4934;50.852;8.098;2023-11-21T11:00:32;8.90;99.90
9790;DHT22;4934;50.852;8.098;2023-11-21T11:02:59;8.80;99.90
9790;DHT22;4934;50.852;8.098;2023-11-21T11:05:26;8.60;99.90
9790;DHT22;4934;50.852;8.098;2023-11-21T11:08:00;8.50;99.90
9790;DHT22;4934;50.852;8.098;2023-11-21T11:10:28;8.40;99.90
9790;DHT22;4934;50.852;8.098;2023-11-21T11:12:55;8.50;99.90
9790;DHT22;4934;50.852;8.098;2023-11-21T11:15:23;8.50;99.90
9790;DHT22;4934;50.852;8.098;2023-11-21T11:17:49;8.60;99.90
9790;DHT22;4934;50.852;8.098;2023-11-21T11:20:16;8.70;99.90
9790;DHT22;4934;50.852;8.098;2023-11-21T11:22:48;8.80;99.90
9790;DHT22;4934;50.852;8.098;2023-11-21T11:25:35;8.60;99.90
9790;DHT22;4934;50.852;8.098;2023-11-21T11:28:08;8.50;99.90
9790;DHT22;4934;50.852;8.098;2023-11-21T11:30:46;8.50;99.90
9790;DHT22;4934;50.852;8.098;2023-11-21T11:33:50;8.40;99.90
9790;DHT22;4934;50.852;8.098;2023-11-21T11:36:13;8.50;99.90
9790;DHT22;4934;50.852;8.098;2023-11-21T11:38:38;8.40;99.90
9790;DHT22;4934;50.852;8.098;2023-11-21T11:41:06;8.40;99.90
9790;DHT22;4934;50.852;8.098;2023-11-21T11:43:32;8.50;99.90
9790;DHT22;4934;50.852;8.098;2023-11-21T11:46:03;8.40;99.90
9790;DHT22;4934;50.852;8.098;2023-11-21T11:48:29;8.40;99.90
9790;DHT22;4934;50.852;8.098;2023-11-21T11:51:05;8.40;99.90
9790;DHT22;4934;50.852;8.098;2023-11-21T11:53:47;8.50;99.90
9790;DHT22;4934;50.852;8.098;2023-11-21T11:56:30;8.40;99.90
9790;DHT22;4934;50.852;8.098;2023-11-21T11:58:58;8.40;99.90
9790;DHT22;4934;50.852;8.098;2023-11-21T12:01:26;8.40;99.90
9790;DHT22;4934;50.852;8.098;2023-11-21T12:06:42;8.50;99.90
9790;DHT22;4934;50.852;8.098;2023-11-21T12:09:21;8.60;99.90
9790;DHT22;4934;50.852;8.098;2023-11-21T12:11:47;8.80;99.90
9790;DHT22;4934;50.852;8.098;2023-11-21T12:14:16;8.90;99.90
9790;DHT22;4934;50.852;8.098;2023-11-21T12:16:43;8.90;99.90
9790;DHT22;4934;50.852;8.098;2023-11-21T12:19:12;8.90;99.90
9790;DHT22;4934;50.852;8.098;2023-11-21T12:21:38;8.80;99.90
9790;DHT22;4934;50.852;8.098;2023-11-21T12:24:04;8.60;99.90
9790;DHT22;4934;50.852;8.098;2023-11-21T12:26:34;8.60;99.90
9790;DHT22;4934;50.852;8.098;2023-11-21T12:29:00;8.60;99.90
9790;DHT22;4934;50.852;8.098;2023-11-21T12:31:26;8.70;99.90
9790;DHT22;4934;50.852;8.098;2023-11-21T12:33:54;8.70;99.90
9790;DHT22;4934;50.852;8.098;2023-11-21T12:36:19;8.80;99.90
9790;DHT22;4934;50.852;8.098;2023-11-21T12:38:45;8.90;99.90
9790;DHT22;4934;50.852;8.098;2023-11-21T12:41:11;9.00;99.90
9790;DHT22;4934;50.852;8.098;2023-11-21T12:43:36;9.10;99.90
9790;DHT22;4934;50.852;8.098;2023-11-21T12:46:08;9.10;99.90
9790;DHT22;4934;50.852;8.098;2023-11-21T12:48:37;9.20;99.90
9790;DHT22;4934;50.852;8.098;2023-11-21T12:51:05;9.20;99.90
9790;DHT22;4934;50.852;8.098;2023-11-21T12:53:32;9.20;99.90
9790;DHT22;4934;50.852;8.098;2023-11-21T12:56:05;9.10;99.90
9790;DHT22;4934;50.852;8.098;2023-11-21T12:58:31;9.10;99.90
9790;DHT22;4934;50.852;8.098;2023-11-21T13:00:59;9.10;99.90
9790;DHT22;4934;50.852;8.098;2023-11-21T13:03:25;8.90;99.90
9790;DHT22;4934;50.852;8.098;2023-11-21T13:05:53;8.90;99.90
9790;DHT22;4934;50.852;8.098;2023-11-21T13:08:21;9.00;99.90
9790;DHT22;4934;50.852;8.098;2023-11-21T13:10:50;9.00;99.90
9790;DHT22;4934;50.852;8.098;2023-11-21T13:13:17;9.00;99.90
9790;DHT22;4934;50.852;8.098;2023-11-21T13:18:15;8.80;99.90
9790;DHT22;4934;50.852;8.098;2023-11-21T13:20:41;8.70;99.90
9790;DHT22;4934;50.852;8.098;2023-11-21T13:23:09;8.70;99.90
9790;DHT22;4934;50.852;8.098;2023-11-21T13:25:37;8.60;99.90
9790;DHT22;4934;50.852;8.098;2023-11-21T13:28:04;8.60;99.90
9790;DHT22;4934;50.852;8.098;2023-11-21T13:30:30;8.50;99.90
9790;DHT22;4934;50.852;8.098;2023-11-21T13:33:03;8.50;99.90
9790;DHT22;4934;50.852;8.098;2023-11-21T13:35:34;8.60;99.90
9790;DHT22;4934;50.852;8.098;2023-11-21T13:40:32;8.50;99.90
9790;DHT22;4934;50.852;8.098;2023-11-21T13:43:00;8.40;99.90
9790;DHT22;4934;50.852;8.098;2023-11-21T13:45:29;8.40;99.90
9790;DHT22;4934;50.852;8.098;2023-11-21T13:47:56;8.30;99.90
9790;DHT22;4934;50.852;8.098;2023-11-21T13:50:27;8.30;99.90
9790;DHT22;4934;50.852;8.098;2023-11-21T13:52:59;8.30;99.90
9790;DHT22;4934;50.852;8.098;2023-11-21T13:55:36;8.30;99.90
9790;DHT22;4934;50.852;8.098;2023-11-21T13:58:02;8.30;99.90
9790;DHT22;4934;50.852;8.098;2023-11-21T14:00:29;8.20;99.90
9790;DHT22;4934;50.852;8.098;2023-11-21T14:03:14;8.20;99.90
9790;DHT22;4934;50.852;8.098;2023-11-21T14:05:48;8.30;99.90
9790;DHT22;4934;50.852;8.098;2023-11-21T14:08:20;8.30;99.90
9790;DHT22;4934;50.852;8.098;2023-11-21T14:10:50;8.30;99.90
9790;DHT22;4934;50.852;8.098;2023-11-21T14:13:19;8.40;99.90
9790;DHT22;4934;50.852;8.098;2023-11-21T14:15:49;8.30;99.90
9790;DHT22;4934;50.852;8.098;2023-11-21T14:18:17;8.20;99.90
9790;DHT22;4934;50.852;8.098;2023-11-21T14:20:51;8.20;99.90
9790;DHT22;4934;50.852;8.098;2023-11-21T14:23:17;8.20;99.90
9790;DHT22;4934;50.852;8.098;2023-11-21T14:25:43;8.20;99.90
9790;DHT22;4934;50.852;8.098;2023-11-21T14:28:09;8.10;99.90
9790;DHT22;4934;50.852;8.098;2023-11-21T14:30:37;8.10;99.90
9790;DHT22;4934;50.852;8.098;2023-11-21T14:33:05;8.20;99.90
9790;DHT22;4934;50.852;8.098;2023-11-21T14:35:31;8.10;99.90
9790;DHT22;4934;50.852;8.098;2023-11-21T14:37:58;8.10;99.90
9790;DHT22;4934;50.852;8.098;2023-11-21T14:40:25;8.10;99.90
9790;DHT22;4934;50.852;8.098;2023-11-21T14:42:51;8.10;99.90
9790;DHT22;4934;50.852;8.098;2023-11-21T14:45:21;8.10;99.90
9790;DHT22;4934;50.852;8.098;2023-11-21T14:47:48;8.00;99.90
9790;DHT22;4934;50.852;8.098;2023-11-21T14:50:35;8.10;99.90
9790;DHT22;4934;50.852;8.098;2023-11-21T14:53:14;8.10;99.90
9790;DHT22;4934;50.852;8.098;2023-11-21T14:55:40;8.10;99.90
9790;DHT22;4934;50.852;8.098;2023-11-21T14:58:14;8.20;99.90
9790;DHT22;4934;50.852;8.098;2023-11-21T15:00:45;8.10;99.90
9790;DHT22;4934;50.852;8.098;2023-11-21T15:03:11;8.10;99.90
9790;DHT22;4934;50.852;8.098;2023-11-21T15:06:04;8.10;99.90
9790;DHT22;4934;50.852;8.098;2023-11-21T15:08:53;8.20;99.90
9790;DHT22;4934;50.852;8.098;2023-11-21T15:11:26;8.20;99.90
9790;DHT22;4934;50.852;8.098;2023-11-21T15:13:56;8.20;99.90
9790;DHT22;4934;50.852;8.098;2023-11-21T15:16:24;8.20;99.90
9790;DHT22;4934;50.852;8.098;2023-11-21T15:18:52;8.30;99.90
9790;DHT22;4934;50.852;8.098;2023-11-21T15:21:18;8.30;99.90
9790;DHT22;4934;50.852;8.098;2023-11-21T15:23:45;8.40;99.90
9790;DHT22;4934;50.852;8.098;2023-11-21T15:26:10;8.30;99.90
9790;DHT22;4934;50.852;8.098;2023-11-21T15:28:36;8.40;99.90
9790;DHT22;4934;50.852;8.098;2023-11-21T15:31:01;8.40;99.90
9790;DHT22;4934;50.852;8.098;2023-11-21T15:33:28;8.30;99.90
9790;DHT22;4934;50.852;8.098;2023-11-21T15:35:54;8.30;99.90
9790;DHT22;4934;50.852;8.098;2023-11-21T15:38:20;8.20;99.90
9790;DHT22;4934;50.852;8.098;2023-11-21T15:40:46;8.10;99.90
9790;DHT22;4934;50.852;8.098;2023-11-21T15:43:12;8.10;99.90
9790;DHT22;4934;50.852;8.098;2023-11-21T15:45:38;8.00;99.90
9790;DHT22;4934;50.852;8.098;2023-11-21T15:48:11;8.10;99.90
9790;DHT22;4934;50.852;8.098;2023-11-21T15:50:37;8.00;99.90
9790;DHT22;4934;50.852;8.098;2023-11-21T15:53:03;8.00;99.90
9790;DHT22;4934;50.852;8.098;2023-11-21T15:55:30;8.00;99.90
9790;DHT22;4934;50.852;8.098;2023-11-21T15:57:56;7.90;99.90
9790;DHT22;4934;50.852;8.098;2023-11-21T16:00:22;7.90;99.90
9790;DHT22;4934;50.852;8.098;2023-11-21T16:02:50;8.00;99.90
9790;DHT22;4934;50.852;8.098;2023-11-21T16:05:16;8.00;99.90
9790;DHT22;4934;50.852;8.098;2023-11-21T16:07:43;8.00;99.90
9790;DHT22;4934;50.852;8.098;2023-11-21T16:10:09;7.90;99.90
9790;DHT22;4934;50.852;8.098;2023-11-21T16:12:40;7.90;99.90
9790;DHT22;4934;50.852;8.098;2023-11-21T16:15:07;7.90;99.90
9790;DHT22;4934;50.852;8.098;2023-11-21T16:17:38;7.90;99.90
9790;DHT22;4934;50.852;8.098;2023-11-21T16:20:06;7.90;99.90
9790;DHT22;4934;50.852;8.098;2023-11-21T16:22:35;7.90;99.90
9790;DHT22;4934;50.852;8.098;2023-11-21T16:25:01;8.00;99.90
9790;DHT22;4934;50.852;8.098;2023-11-21T16:27:26;7.90;99.90